createdAt,value
2022-11-27T00:01:36.716Z,41.92
2022-11-27T00:04:05.943Z,44.25
2022-11-27T00:06:35.864Z,32.97
2022-11-27T00:09:07.839Z,42.88
2022-11-27T00:11:39.365Z,44.83
2022-11-27T00:14:10.977Z,47.47
2022-11-27T00:16:39.369Z,50.13
2022-11-27T00:19:07.957Z,50.40
2022-11-27T00:21:37.042Z,49.42
2022-11-27T00:24:07.735Z,47.50
2022-11-27T00:26:38.370Z,53.10
2022-11-27T00:29:07.712Z,49.03
2022-11-27T00:31:38.442Z,49.03
2022-11-27T00:34:08.772Z,50.63
2022-11-27T00:36:38.303Z,49.50
2022-11-27T00:39:07.161Z,49.30
2022-11-27T00:41:35.970Z,48.72
2022-11-27T00:44:05.145Z,51.30
2022-11-27T00:46:34.965Z,48.03
2022-11-27T00:51:34.884Z,46.17
2022-11-27T00:54:03.624Z,47.88
2022-11-27T00:56:34.107Z,45.50
2022-11-27T00:59:02.990Z,49.13
2022-11-27T01:01:32.766Z,48.90
2022-11-27T01:06:32.262Z,48.65
2022-11-27T01:09:01.224Z,49.60
2022-11-27T01:11:31.403Z,52.50
2022-11-27T01:16:30.263Z,46.03
2022-11-27T01:19:00.033Z,47.35
2022-11-27T01:21:32.399Z,47.45
2022-11-27T01:24:01.643Z,48.55
2022-11-27T01:26:30.517Z,48.00
2022-11-27T01:28:59.626Z,48.13
2022-11-27T01:31:31.611Z,48.05
2022-11-27T01:34:01.741Z,48.40
2022-11-27T01:36:32.832Z,47.80
2022-11-27T01:39:02.009Z,47.83
2022-11-27T01:41:32.194Z,45.97
2022-11-27T01:44:02.288Z,46.22
2022-11-27T01:46:36.656Z,48.47
2022-11-27T01:49:21.526Z,48.08
2022-11-27T01:51:53.993Z,48.42
2022-11-27T01:54:23.532Z,47.92
2022-11-27T01:56:56.242Z,50.03
2022-11-27T01:59:25.297Z,49.05
2022-11-27T02:01:53.623Z,49.63
2022-11-27T02:04:22.324Z,50.05
2022-11-27T02:06:52.394Z,53.00
2022-11-27T02:09:21.006Z,54.08
2022-11-27T02:11:55.382Z,57.15
2022-11-27T02:14:28.165Z,56.50
2022-11-27T02:17:00.448Z,59.38
2022-11-27T02:19:40.509Z,56.58
2022-11-27T02:22:19.545Z,60.42
2022-11-27T02:24:54.783Z,58.20
2022-11-27T02:28:03.024Z,56.75
2022-11-27T02:30:37.619Z,52.75
2022-11-27T02:33:07.930Z,54.95
2022-11-27T02:38:09.211Z,56.38
2022-11-27T02:40:40.552Z,56.45
2022-11-27T02:43:11.939Z,58.40
2022-11-27T02:45:44.168Z,58.30
2022-11-27T02:48:14.700Z,57.67
2022-11-27T02:50:45.942Z,56.05
2022-11-27T02:53:18.931Z,55.95
2022-11-27T02:55:48.260Z,56.53
2022-11-27T02:58:19.618Z,39.55
2022-11-27T03:00:50.835Z,55.15
2022-11-27T03:03:22.966Z,55.53
2022-11-27T03:05:54.003Z,51.25
2022-11-27T03:08:27.065Z,53.40
2022-11-27T03:10:59.549Z,53.67
2022-11-27T03:13:28.968Z,53.03
2022-11-27T03:16:08.363Z,40.83
2022-11-27T03:18:40.496Z,45.42
2022-11-27T03:21:16.809Z,58.42
2022-11-27T03:23:45.613Z,58.03
2022-11-27T03:26:14.329Z,58.95
2022-11-27T03:28:44.552Z,60.30
2022-11-27T03:31:15.008Z,56.67
2022-11-27T03:33:43.723Z,59.20
2022-11-27T03:36:15.015Z,64.88
2022-11-27T03:38:44.025Z,61.40
2022-11-27T03:41:20.485Z,60.60
2022-11-27T03:43:57.641Z,60.78
2022-11-27T03:46:33.220Z,60.35
2022-11-27T03:49:10.441Z,55.10
2022-11-27T03:51:43.189Z,55.25
2022-11-27T03:54:19.086Z,55.17
2022-11-27T03:56:51.844Z,55.53
2022-11-27T03:59:25.194Z,54.85
2022-11-27T04:01:54.945Z,56.88
2022-11-27T04:04:23.711Z,55.72
2022-11-27T04:06:52.441Z,55.03
2022-11-27T04:09:21.057Z,52.00
2022-11-27T04:11:49.817Z,51.92
2022-11-27T04:14:18.431Z,50.92
2022-11-27T04:16:46.641Z,53.17
2022-11-27T04:19:16.929Z,51.10
2022-11-27T04:24:14.004Z,47.85
2022-11-27T04:26:42.688Z,48.35
2022-11-27T04:29:11.320Z,49.08
2022-11-27T04:31:39.943Z,49.28
2022-11-27T04:34:08.697Z,49.05
2022-11-27T04:36:39.673Z,47.63
2022-11-27T04:39:08.556Z,50.65
2022-11-27T04:41:37.322Z,49.72
2022-11-27T04:44:06.659Z,53.13
2022-11-27T04:46:35.182Z,49.85
2022-11-27T04:49:03.820Z,48.88
2022-11-27T04:51:32.953Z,50.10
2022-11-27T04:54:03.224Z,48.42
2022-11-27T04:59:00.286Z,50.40
2022-11-27T05:01:28.624Z,53.72
2022-11-27T05:03:57.309Z,51.80
2022-11-27T05:06:26.017Z,49.70
2022-11-27T05:09:00.087Z,49.00
2022-11-27T05:11:30.988Z,50.13
2022-11-27T05:14:13.422Z,50.55
2022-11-27T05:16:41.935Z,49.05
2022-11-27T05:19:11.102Z,49.78
2022-11-27T05:21:40.069Z,46.50
2022-11-27T05:24:09.031Z,48.72
2022-11-27T05:26:39.702Z,48.85
2022-11-27T05:29:09.083Z,49.70
2022-11-27T05:31:37.757Z,47.60
2022-11-27T05:34:06.757Z,49.40
2022-11-27T05:36:35.780Z,48.80
2022-11-27T05:39:06.391Z,47.50
2022-11-27T05:41:35.325Z,47.08
2022-11-27T05:44:05.798Z,49.75
2022-11-27T05:46:34.393Z,49.83
2022-11-27T05:49:03.036Z,49.33
2022-11-27T05:51:31.741Z,49.30
2022-11-27T05:54:00.430Z,48.55
2022-11-27T05:56:29.055Z,46.83
2022-11-27T05:58:57.817Z,47.92
2022-11-27T06:01:27.614Z,47.28
2022-11-27T06:06:24.879Z,46.03
2022-11-27T06:08:53.563Z,51.45
2022-11-27T06:11:23.342Z,52.10
2022-11-27T06:13:52.171Z,33.83
2022-11-27T06:16:22.403Z,49.50
2022-11-27T06:23:50.328Z,47.25
2022-11-27T06:26:20.683Z,50.40
2022-11-27T06:28:50.168Z,50.97
2022-11-27T06:31:20.604Z,49.53
2022-11-27T06:33:50.423Z,51.15
2022-11-27T06:36:21.320Z,50.75
2022-11-27T06:38:50.030Z,43.03
2022-11-27T06:41:20.958Z,46.88
2022-11-27T06:43:49.576Z,50.08
2022-11-27T06:46:21.254Z,49.30
2022-11-27T06:48:51.535Z,48.88
2022-11-27T06:53:52.167Z,48.53
2022-11-27T06:56:24.023Z,50.83
2022-11-27T06:58:53.535Z,48.08
2022-11-27T07:01:23.458Z,48.57
2022-11-27T07:03:52.616Z,48.55
2022-11-27T07:06:23.894Z,49.70
2022-11-27T07:08:53.163Z,51.95
2022-11-27T07:11:23.284Z,49.75
2022-11-27T07:13:52.763Z,43.58
2022-11-27T07:16:21.438Z,49.05
2022-11-27T07:18:51.525Z,49.17
2022-11-27T07:21:20.473Z,52.53
2022-11-27T07:23:50.530Z,48.20
2022-11-27T07:26:23.275Z,46.20
2022-11-27T07:28:51.866Z,47.22
2022-11-27T07:31:22.451Z,51.47
2022-11-27T07:33:52.572Z,49.40
2022-11-27T07:36:22.534Z,51.17
2022-11-27T07:38:53.227Z,46.83
2022-11-27T07:41:22.149Z,50.90
2022-11-27T07:43:50.504Z,51.63
2022-11-27T07:46:20.539Z,50.65
2022-11-27T07:48:49.247Z,50.80
2022-11-27T07:51:20.365Z,53.30
2022-11-27T07:53:51.830Z,52.47
2022-11-27T07:56:22.256Z,50.22
2022-11-27T07:58:50.652Z,45.47
2022-11-27T08:01:21.804Z,51.45
2022-11-27T08:03:50.515Z,52.22
2022-11-27T08:06:21.708Z,33.90
2022-11-27T08:08:51.251Z,53.63
2022-11-27T08:11:23.737Z,55.13
2022-11-27T08:13:52.171Z,50.55
2022-11-27T08:16:20.915Z,54.63
2022-11-27T08:18:49.581Z,51.90
2022-11-27T08:21:21.621Z,53.05
2022-11-27T08:23:50.416Z,51.05
2022-11-27T08:26:19.034Z,51.55
2022-11-27T08:28:48.735Z,49.85
2022-11-27T08:31:20.842Z,39.78
2022-11-27T08:33:49.721Z,49.65
2022-11-27T08:36:18.767Z,51.80
2022-11-27T08:38:47.652Z,40.83
2022-11-27T08:41:16.336Z,51.47
2022-11-27T08:43:44.740Z,51.58
2022-11-27T08:46:15.007Z,48.67
2022-11-27T08:51:13.607Z,43.97
2022-11-27T08:53:45.664Z,49.90
2022-11-27T08:56:17.524Z,47.88
2022-11-27T08:58:46.411Z,46.72
2022-11-27T09:01:18.688Z,49.13
2022-11-27T09:03:47.700Z,48.25
2022-11-27T09:06:19.972Z,44.58
2022-11-27T09:08:48.752Z,51.50
2022-11-27T09:11:20.950Z,41.50
2022-11-27T09:13:49.499Z,43.80
2022-11-27T09:16:21.287Z,48.45
2022-11-27T09:18:51.705Z,46.97
2022-11-27T09:23:49.737Z,47.70
2022-11-27T09:26:18.649Z,52.78
2022-11-27T09:28:47.547Z,47.58
2022-11-27T09:31:16.784Z,49.47
2022-11-27T09:33:47.289Z,42.70
2022-11-27T09:36:17.779Z,49.08
2022-11-27T09:38:46.598Z,48.53
2022-11-27T09:41:27.675Z,43.92
2022-11-27T09:43:58.160Z,50.15
2022-11-27T09:46:31.323Z,49.75
2022-11-27T09:49:02.363Z,45.63
2022-11-27T09:51:34.255Z,49.60
2022-11-27T09:54:08.287Z,51.88
2022-11-27T09:56:37.793Z,48.17
2022-11-27T09:59:15.191Z,53.10
2022-11-27T10:01:49.328Z,48.97
2022-11-27T10:04:21.554Z,51.38
2022-11-27T10:07:16.772Z,52.05
2022-11-27T10:09:56.998Z,50.10
2022-11-27T10:12:31.516Z,50.83
2022-11-27T10:15:05.758Z,50.92
2022-11-27T10:17:38.545Z,51.47
2022-11-27T10:20:19.964Z,54.15
2022-11-27T10:22:53.942Z,50.92
2022-11-27T10:25:26.847Z,51.30
2022-11-27T10:28:03.317Z,50.13
2022-11-27T10:30:33.525Z,50.28
2022-11-27T10:33:03.824Z,51.38
2022-11-27T10:38:07.027Z,50.80
2022-11-27T10:40:38.808Z,50.67
2022-11-27T10:43:12.581Z,54.80
2022-11-27T10:45:45.472Z,52.50
2022-11-27T10:48:14.616Z,54.50
2022-11-27T10:50:46.238Z,54.85
2022-11-27T10:53:20.967Z,55.97
2022-11-27T10:56:02.655Z,53.17
2022-11-27T10:58:34.486Z,51.80
2022-11-27T11:01:04.901Z,49.20
2022-11-27T11:03:33.826Z,51.10
2022-11-27T11:06:23.178Z,46.92
2022-11-27T11:09:03.034Z,48.40
2022-11-27T11:11:31.796Z,46.17
2022-11-27T11:14:00.394Z,46.00
2022-11-27T11:16:35.128Z,42.20
2022-11-27T11:19:06.351Z,43.10
2022-11-27T11:21:40.595Z,45.08
2022-11-27T11:24:15.950Z,44.65
2022-11-27T11:26:46.812Z,43.67
2022-11-27T11:29:31.053Z,46.42
2022-11-27T11:32:03.796Z,48.03
2022-11-27T11:34:32.798Z,47.50
2022-11-27T11:37:05.032Z,48.15
2022-11-27T11:39:35.718Z,50.38
2022-11-27T11:42:10.716Z,47.70
2022-11-27T11:44:40.894Z,48.50
2022-11-27T11:49:44.008Z,49.20
2022-11-27T11:52:26.774Z,50.42
2022-11-27T11:55:01.747Z,51.08
2022-11-27T11:58:02.794Z,48.70
2022-11-27T12:00:58.426Z,47.80
2022-11-27T12:03:38.322Z,48.75
2022-11-27T12:06:32.721Z,49.45
2022-11-27T12:09:21.449Z,46.17
2022-11-27T12:11:55.720Z,46.38
2022-11-27T12:14:35.752Z,49.55
2022-11-27T12:17:12.551Z,46.25
2022-11-27T12:20:19.824Z,47.85
2022-11-27T12:23:16.657Z,46.22
2022-11-27T12:25:51.088Z,47.20
2022-11-27T12:28:33.907Z,47.63
2022-11-27T12:31:06.795Z,48.00
2022-11-27T12:33:44.512Z,48.03
2022-11-27T12:36:19.247Z,46.60
2022-11-27T12:39:11.299Z,48.92
2022-11-27T12:41:50.508Z,49.20
2022-11-27T12:44:23.936Z,51.13
2022-11-27T12:46:58.816Z,49.25
2022-11-27T12:49:30.113Z,48.88
2022-11-27T12:52:03.706Z,48.55
2022-11-27T12:54:34.176Z,48.83
2022-11-27T12:57:09.107Z,50.60
2022-11-27T12:59:42.580Z,47.38
2022-11-27T13:02:24.976Z,47.60
2022-11-27T13:04:57.807Z,47.03
2022-11-27T13:07:29.625Z,48.03
2022-11-27T13:10:02.183Z,47.78
2022-11-27T13:12:36.375Z,49.33
2022-11-27T13:15:10.183Z,48.58
2022-11-27T13:17:42.047Z,49.08
2022-11-27T13:20:15.874Z,49.90
2022-11-27T13:22:44.876Z,47.38
2022-11-27T13:25:15.536Z,47.92
2022-11-27T13:27:48.178Z,46.70
2022-11-27T13:30:22.131Z,45.88
2022-11-27T13:32:52.851Z,42.78
2022-11-27T13:35:24.714Z,42.45
2022-11-27T13:37:58.689Z,45.25
2022-11-27T13:40:30.275Z,40.08
2022-11-27T13:43:05.362Z,41.42
2022-11-27T13:45:37.811Z,40.95
2022-11-27T13:48:31.077Z,42.47
2022-11-27T13:51:00.186Z,40.85
2022-11-27T13:53:33.320Z,43.40
2022-11-27T13:56:02.006Z,43.55
2022-11-27T13:58:33.801Z,41.97
2022-11-27T14:01:14.708Z,47.22
2022-11-27T14:03:43.516Z,45.20
2022-11-27T14:06:21.795Z,47.63
2022-11-27T14:08:52.450Z,47.85
2022-11-27T14:11:40.290Z,48.45
2022-11-27T14:14:22.017Z,46.10
2022-11-27T14:16:58.765Z,47.10
2022-11-27T14:19:34.522Z,44.70
2022-11-27T14:22:03.543Z,45.22
2022-11-27T14:24:41.451Z,44.35
2022-11-27T14:27:21.541Z,45.60
2022-11-27T14:29:52.353Z,45.25
2022-11-27T14:32:22.010Z,44.40
2022-11-27T14:34:50.232Z,43.45
2022-11-27T14:37:23.663Z,45.70
2022-11-27T14:39:52.653Z,43.25
2022-11-27T14:42:28.141Z,45.70
2022-11-27T14:45:07.607Z,45.35
2022-11-27T14:47:36.880Z,45.45
2022-11-27T14:50:07.383Z,49.00
2022-11-27T14:55:04.643Z,44.92
2022-11-27T14:57:33.408Z,44.33
2022-11-27T15:00:16.862Z,47.33
2022-11-27T15:02:46.321Z,43.35
2022-11-27T15:05:20.866Z,46.20
2022-11-27T15:07:51.084Z,43.88
2022-11-27T15:10:28.355Z,44.30
2022-11-27T15:12:57.886Z,44.20
2022-11-27T15:15:29.529Z,47.17
2022-11-27T15:18:00.006Z,47.35
2022-11-27T15:20:33.212Z,45.03
2022-11-27T15:23:02.130Z,46.10
2022-11-27T15:25:36.139Z,46.08
2022-11-27T15:28:06.535Z,45.17
2022-11-27T15:33:05.236Z,46.22
2022-11-27T15:35:35.427Z,48.00
2022-11-27T15:40:39.757Z,48.60
2022-11-27T15:43:12.045Z,47.92
2022-11-27T15:45:43.158Z,50.50
2022-11-27T15:48:15.828Z,53.17
2022-11-27T15:50:51.208Z,57.03
2022-11-27T15:53:20.374Z,56.33
2022-11-27T15:55:48.683Z,56.25
2022-11-27T15:58:17.292Z,61.42
2022-11-27T16:00:47.286Z,55.38
2022-11-27T16:03:16.021Z,56.40
2022-11-27T16:05:44.879Z,60.25
2022-11-27T16:08:14.116Z,57.08
2022-11-27T16:10:42.613Z,57.65
2022-11-27T16:13:11.298Z,56.70
2022-11-27T16:15:39.975Z,58.33
2022-11-27T16:18:10.832Z,56.53
2022-11-27T16:20:39.604Z,53.80
2022-11-27T16:23:08.297Z,53.88
2022-11-27T16:25:39.296Z,57.65
2022-11-27T16:28:07.990Z,55.67
2022-11-27T16:30:36.738Z,54.05
2022-11-27T16:33:05.463Z,52.47
2022-11-27T16:35:35.546Z,53.63
2022-11-27T16:38:04.374Z,52.10
2022-11-27T16:40:34.956Z,54.50
2022-11-27T16:43:04.335Z,51.03
2022-11-27T16:45:37.303Z,56.13
2022-11-27T16:48:06.312Z,52.88
2022-11-27T16:50:36.529Z,54.38
2022-11-27T16:55:34.269Z,53.20
2022-11-27T16:58:02.988Z,52.88
2022-11-27T17:00:31.995Z,56.80
2022-11-27T17:03:00.697Z,54.63
2022-11-27T17:05:29.313Z,55.00
2022-11-27T17:07:59.576Z,54.72
2022-11-27T17:10:28.019Z,57.22
2022-11-27T17:12:56.656Z,56.88
2022-11-27T17:15:25.291Z,53.55
2022-11-27T17:17:57.633Z,54.88
2022-11-27T17:20:26.403Z,57.72
2022-11-27T17:22:54.696Z,55.97
2022-11-27T17:25:25.528Z,58.60
2022-11-27T17:27:54.862Z,56.17
2022-11-27T17:30:23.835Z,57.38
2022-11-27T17:32:52.618Z,58.30
2022-11-27T17:35:21.466Z,60.58
2022-11-27T17:37:49.731Z,55.35
2022-11-27T17:40:18.513Z,58.40
2022-11-27T17:42:49.244Z,62.63
2022-11-27T17:45:18.045Z,61.88
2022-11-27T17:47:46.823Z,62.97
2022-11-27T17:50:15.665Z,59.47
2022-11-27T17:52:44.195Z,58.90
2022-11-27T17:55:13.477Z,58.92
2022-11-27T17:57:42.594Z,58.30
2022-11-27T18:00:13.392Z,59.22
2022-11-27T18:02:45.503Z,56.97
2022-11-27T18:05:15.524Z,58.53
2022-11-27T18:07:44.535Z,61.38
2022-11-27T18:10:13.515Z,60.67
2022-11-27T18:12:42.494Z,58.30
2022-11-27T18:15:14.225Z,59.25
2022-11-27T18:17:43.019Z,60.78
2022-11-27T18:20:12.142Z,60.70
2022-11-27T18:22:40.459Z,59.58
2022-11-27T18:25:09.937Z,61.47
2022-11-27T18:27:38.590Z,46.50
2022-11-27T18:30:08.531Z,62.35
2022-11-27T18:32:39.098Z,59.92
2022-11-27T18:35:08.320Z,61.80
2022-11-27T18:37:38.555Z,64.55
2022-11-27T18:40:09.288Z,60.55
2022-11-27T18:42:38.097Z,64.97
2022-11-27T18:45:20.172Z,66.00
2022-11-27T18:47:58.300Z,65.22
2022-11-27T18:52:58.543Z,62.80
2022-11-27T18:55:27.333Z,64.32
2022-11-27T18:57:56.254Z,66.15
2022-11-27T19:00:25.090Z,65.03
2022-11-27T19:02:54.099Z,62.03
2022-11-27T19:05:24.251Z,63.85
2022-11-27T19:07:52.641Z,59.30
2022-11-27T19:10:21.650Z,71.93
2022-11-27T19:12:50.371Z,73.93
2022-11-27T19:15:19.278Z,74.53
2022-11-27T19:17:47.921Z,65.28
2022-11-27T19:20:16.653Z,65.75
2022-11-27T19:22:47.141Z,61.20
2022-11-27T19:25:16.058Z,62.97
2022-11-27T19:27:45.023Z,75.38
2022-11-27T19:30:14.829Z,81.20
2022-11-27T19:32:44.153Z,77.75
2022-11-27T19:35:13.976Z,75.72
2022-11-27T19:37:42.287Z,76.35
2022-11-27T19:40:13.877Z,72.15
2022-11-27T19:42:42.562Z,70.43
2022-11-27T19:45:12.274Z,71.47
2022-11-27T19:47:40.957Z,64.30
2022-11-27T19:50:10.240Z,72.40
2022-11-27T19:52:38.658Z,74.85
2022-11-27T19:55:08.262Z,75.53
2022-11-27T19:57:38.875Z,75.88
2022-11-27T20:02:42.821Z,72.47
2022-11-27T20:05:11.688Z,71.35
2022-11-27T20:07:40.430Z,75.05
2022-11-27T20:10:09.955Z,74.53
2022-11-27T20:12:41.366Z,70.95
2022-11-27T20:15:14.428Z,74.30
2022-11-27T20:17:43.865Z,74.70
2022-11-27T20:20:14.340Z,69.30
2022-11-27T20:22:43.195Z,70.93
2022-11-27T20:25:19.518Z,69.45
2022-11-27T20:27:51.470Z,69.57
2022-11-27T20:30:20.861Z,73.40
2022-11-27T20:32:49.616Z,74.03
2022-11-27T20:35:18.380Z,72.40
2022-11-27T20:37:47.887Z,74.33
2022-11-27T20:40:17.131Z,85.38
2022-11-27T20:42:46.103Z,80.88
2022-11-27T20:45:20.347Z,74.80
2022-11-27T20:47:51.209Z,76.93
2022-11-27T20:50:21.069Z,76.93
2022-11-27T20:52:49.986Z,76.47
2022-11-27T20:55:20.018Z,73.45
2022-11-27T20:57:53.495Z,70.43
2022-11-27T21:00:25.895Z,76.93
2022-11-27T21:02:55.089Z,70.40
2022-11-27T21:05:23.795Z,70.63
2022-11-27T21:07:52.221Z,75.13
2022-11-27T21:10:23.418Z,73.38
2022-11-27T21:12:52.134Z,75.78
2022-11-27T21:15:20.837Z,75.95
2022-11-27T21:17:50.951Z,79.00
2022-11-27T21:22:49.230Z,78.63
2022-11-27T21:25:22.642Z,78.95
2022-11-27T21:27:55.920Z,76.03
2022-11-27T21:30:24.632Z,78.10
2022-11-27T21:32:54.771Z,75.25
2022-11-27T21:35:26.392Z,72.57
2022-11-27T21:37:57.034Z,74.32
2022-11-27T21:40:25.665Z,71.32
2022-11-27T21:42:54.710Z,69.63
2022-11-27T21:45:23.423Z,70.95
2022-11-27T21:47:52.114Z,76.93
2022-11-27T21:50:22.220Z,75.55
2022-11-27T21:52:50.484Z,74.22
2022-11-27T21:55:21.998Z,77.15
2022-11-27T21:57:50.741Z,73.72
2022-11-27T22:00:20.699Z,73.03
2022-11-27T22:02:49.502Z,76.28
2022-11-27T22:05:18.747Z,75.20
2022-11-27T22:07:48.403Z,81.10
2022-11-27T22:10:17.111Z,77.05
2022-11-27T22:12:45.949Z,77.97
2022-11-27T22:15:14.911Z,81.30
2022-11-27T22:17:43.771Z,84.18
2022-11-27T22:20:14.200Z,81.05
2022-11-27T22:22:43.014Z,81.20
2022-11-27T22:25:13.183Z,82.50
2022-11-27T22:27:42.023Z,79.18
2022-11-27T22:30:11.482Z,78.22
2022-11-27T22:32:40.312Z,74.50
2022-11-27T22:35:09.667Z,76.43
2022-11-27T22:37:38.146Z,75.53
2022-11-27T22:40:08.654Z,86.13
2022-11-27T22:45:10.139Z,79.90
2022-11-27T22:47:38.766Z,84.22
2022-11-27T22:50:08.443Z,76.78
2022-11-27T22:52:37.168Z,81.93
2022-11-27T22:55:06.624Z,85.10
2022-11-27T22:57:35.389Z,82.70
2022-11-27T23:00:07.686Z,76.93
2022-11-27T23:02:38.654Z,80.60
2022-11-27T23:05:07.730Z,78.22
2022-11-27T23:07:36.124Z,79.80
2022-11-27T23:10:05.147Z,81.65
2022-11-27T23:12:33.769Z,80.72
2022-11-27T23:15:02.434Z,80.13
2022-11-27T23:17:32.426Z,86.18
2022-11-27T23:20:01.032Z,84.05
2022-11-27T23:22:29.347Z,82.85
2022-11-27T23:24:57.924Z,82.03
2022-11-27T23:27:26.506Z,78.53
2022-11-27T23:29:55.131Z,74.82
2022-11-27T23:32:23.808Z,81.35
2022-11-27T23:34:53.507Z,87.63
2022-11-27T23:37:22.087Z,82.20
2022-11-27T23:39:50.689Z,87.75
2022-11-27T23:42:19.280Z,82.10
2022-11-27T23:44:47.919Z,80.20
2022-11-27T23:47:16.577Z,89.72
2022-11-27T23:49:44.766Z,80.68
2022-11-27T23:52:17.299Z,87.35
2022-11-27T23:54:46.040Z,73.60
2022-11-27T23:57:14.874Z,87.45
2022-11-27T23:59:43.554Z,89.95
